Time,TemperatureF,DewpointF,PressureIn,WindDirection,WindDirectionDegrees,WindSpeedMPH,WindSpeedGustMPH,Humidity,HourlyPrecipIn,Conditions,Clouds,dailyrainin,SoftwareType,DateUTC
2013-05-30 00:01:00,73.4,34.5,29.59,SSE,148,3.1,3.1,24,0.00,,CLR,0.00,VWS V14.01,2013-05-30 04:01:00,
2013-05-30 00:06:00,73.4,34.5,29.59,SSE,150,0.0,0.0,24,0.00,,CLR,0.00,VWS V14.01,2013-05-30 04:06:00,
2013-05-30 00:11:00,73.6,34.6,29.59,SSE,148,5.8,5.8,24,0.00,,CLR,0.00,VWS V14.01,2013-05-30 04:11:00,
2013-05-30 00:16:00,73.8,34.8,29.59,SE,139,0.0,4.0,24,0.00,,CLR,0.00,VWS V14.01,2013-05-30 04:16:00,
2013-05-30 00:21:00,73.8,33.7,29.59,SE,135,0.0,0.0,23,0.00,,CLR,0.00,VWS V14.01,2013-05-30 04:21:00,
2013-05-30 00:26:00,73.9,33.8,29.62,ESE,123,0.0,2.2,23,0.00,,CLR,0.00,VWS V14.01,2013-05-30 04:26:00,
2013-05-30 00:31:00,73.8,33.7,29.62,SSE,149,0.0,0.0,23,0.00,,CLR,0.00,VWS V14.01,2013-05-30 04:31:00,
2013-05-30 00:36:00,73.6,34.6,29.62,SE,135,2.2,2.7,24,0.00,,CLR,0.00,VWS V14.01,2013-05-30 04:36:00,
2013-05-30 00:41:00,73.4,34.5,29.62,SE,137,0.0,0.0,24,0.00,,CLR,0.00,VWS V14.01,2013-05-30 04:41:00,
2013-05-30 00:46:00,73.0,34.1,29.62,SE,137,0.0,0.0,24,0.00,,CLR,0.00,VWS V14.01,2013-05-30 04:46:00,
2013-05-30 00:51:00,72.5,34.7,29.62,SE,137,0.0,0.0,25,0.00,,CLR,0.00,VWS V14.01,2013-05-30 04:51:00,
2013-05-30 00:56:00,72.0,35.2,29.62,SE,137,0.0,0.0,26,0.00,,CLR,0.00,VWS V14.01,2013-05-30 04:56:00,
2013-05-30 01:01:00,71.4,35.7,29.62,SE,137,0.0,0.0,27,0.00,,CLR,0.00,VWS V14.01,2013-05-30 05:01:00,
2013-05-30 01:06:00,70.9,37.1,29.62,SE,137,0.0,0.0,29,0.00,,CLR,0.00,VWS V14.01,2013-05-30 05:06:00,
2013-05-30 01:11:00,70.5,38.5,29.62,SE,137,0.0,0.0,31,0.00,,CLR,0.00,VWS V14.01,2013-05-30 05:11:00,
2013-05-30 01:16:00,70.2,39.0,29.62,SE,137,0.0,0.0,32,0.00,,CLR,0.00,VWS V14.01,2013-05-30 05:16:00,
2013-05-30 01:21:00,69.8,38.6,29.62,SE,137,0.0,0.0,32,0.00,,CLR,0.00,VWS V14.01,2013-05-30 05:21:00,
2013-05-30 01:26:00,69.4,39.1,29.62,SE,142,0.0,0.0,33,0.00,,CLR,0.00,VWS V14.01,2013-05-30 05:26:00,
2013-05-30 01:31:00,69.1,39.6,29.62,SE,142,0.0,0.0,34,0.00,,CLR,0.00,VWS V14.01,2013-05-30 05:31:00,
2013-05-30 01:36:00,68.9,39.4,29.62,SE,142,0.0,0.0,34,0.00,,CLR,0.00,VWS V14.01,2013-05-30 05:36:00,
2013-05-30 01:41:00,68.7,40.0,29.62,SE,142,0.0,0.0,35,0.00,,CLR,0.00,VWS V14.01,2013-05-30 05:41:00,
2013-05-30 01:46:00,68.4,39.7,29.62,SE,142,0.0,0.0,35,0.00,,CLR,0.00,VWS V14.01,2013-05-30 05:46:00,
2013-05-30 01:51:00,68.2,39.5,29.62,SE,142,0.0,0.0,35,0.00,,CLR,0.00,VWS V14.01,2013-05-30 05:51:00,
2013-05-30 01:56:00,68.2,40.2,29.62,SE,142,0.0,0.0,36,0.00,,CLR,0.00,VWS V14.01,2013-05-30 05:56:00,
2013-05-30 02:01:00,68.0,40.8,29.62,SE,142,0.0,0.0,37,0.00,,CLR,0.00,VWS V14.01,2013-05-30 06:01:00,
2013-05-30 02:06:00,67.8,41.3,29.62,SE,142,0.0,0.0,38,0.00,,CLR,0.00,VWS V14.01,2013-05-30 06:06:00,
2013-05-30 02:11:00,67.8,41.3,29.62,SE,142,0.0,0.0,38,0.00,,CLR,0.00,VWS V14.01,2013-05-30 06:11:00,
2013-05-30 02:16:00,67.6,41.8,29.62,SE,142,0.0,0.0,39,0.00,,CLR,0.00,VWS V14.01,2013-05-30 06:16:00,
2013-05-30 02:21:00,67.6,41.8,29.62,SE,142,0.0,0.0,39,0.00,,CLR,0.00,VWS V14.01,2013-05-30 06:21:00,
2013-05-30 02:26:00,67.5,42.3,29.62,SE,142,0.0,0.0,40,0.00,,CLR,0.00,VWS V14.01,2013-05-30 06:26:00,
2013-05-30 02:31:00,67.5,42.3,29.62,SE,142,0.0,0.0,40,0.00,,CLR,0.00,VWS V14.01,2013-05-30 06:31:00,
2013-05-30 02:36:00,67.3,42.8,29.62,SE,142,0.0,0.0,41,0.00,,CLR,0.00,VWS V14.01,2013-05-30 06:36:00,
2013-05-30 02:41:00,67.3,43.4,29.62,SE,142,0.0,0.0,42,0.00,,CLR,0.00,VWS V14.01,2013-05-30 06:41:00,
2013-05-30 02:46:00,67.1,43.3,29.62,SE,142,0.0,0.0,42,0.00,,CLR,0.00,VWS V14.01,2013-05-30 06:46:00,
2013-05-30 02:51:00,67.1,43.9,29.62,SE,142,0.0,0.0,43,0.00,,CLR,0.00,VWS V14.01,2013-05-30 06:51:00,
2013-05-30 02:56:00,66.9,43.7,29.62,SE,142,0.0,0.0,43,0.00,,CLR,0.00,VWS V14.01,2013-05-30 06:56:00,
2013-05-30 03:01:00,66.9,43.7,29.62,SE,142,0.0,0.0,43,0.00,,CLR,0.00,VWS V14.01,2013-05-30 07:01:00,
2013-05-30 03:06:00,66.9,43.7,29.62,SE,142,0.0,0.0,43,0.00,,CLR,0.00,VWS V14.01,2013-05-30 07:06:00,
2013-05-30 03:11:00,66.9,43.7,29.62,SE,142,0.0,0.0,43,0.00,,CLR,0.00,VWS V14.01,2013-05-30 07:11:00,
2013-05-30 03:16:00,66.7,44.2,29.62,SE,142,0.0,0.0,44,0.00,,CLR,0.00,VWS V14.01,2013-05-30 07:16:00,
2013-05-30 03:21:00,66.7,44.2,29.62,SE,142,0.0,0.0,44,0.00,,CLR,0.00,VWS V14.01,2013-05-30 07:21:00,
2013-05-30 03:26:00,66.6,44.0,29.62,SE,142,0.0,0.0,44,0.00,,CLR,0.00,VWS V14.01,2013-05-30 07:26:00,
2013-05-30 03:31:00,66.4,44.4,29.62,SE,142,0.0,0.0,45,0.00,,CLR,0.00,VWS V14.01,2013-05-30 07:31:00,
2013-05-30 03:36:00,66.4,44.4,29.62,SE,142,0.0,0.0,45,0.00,,CLR,0.00,VWS V14.01,2013-05-30 07:36:00,
2013-05-30 03:41:00,66.2,44.2,29.62,SE,142,0.0,0.0,45,0.00,,CLR,0.00,VWS V14.01,2013-05-30 07:41:00,
2013-05-30 03:46:00,66.0,44.1,29.62,SE,142,0.0,0.0,45,0.00,,CLR,0.00,VWS V14.01,2013-05-30 07:46:00,
2013-05-30 03:51:00,66.0,44.7,29.62,SE,142,0.0,0.0,46,0.00,,CLR,0.00,VWS V14.01,2013-05-30 07:51:00,
2013-05-30 03:56:00,65.8,44.5,29.62,SE,142,0.0,0.0,46,0.00,,CLR,0.00,VWS V14.01,2013-05-30 07:56:00,
2013-05-30 04:01:00,65.8,45.1,29.62,SE,142,0.0,0.0,47,0.00,,CLR,0.00,VWS V14.01,2013-05-30 08:01:00,
2013-05-30 04:06:00,65.7,44.9,29.62,SE,142,0.0,0.0,47,0.00,,CLR,0.00,VWS V14.01,2013-05-30 08:06:00,
2013-05-30 04:11:00,65.5,44.7,29.62,SE,142,0.0,0.0,47,0.00,,CLR,0.00,VWS V14.01,2013-05-30 08:11:00,
2013-05-30 04:16:00,65.5,45.3,29.62,SE,142,0.0,0.0,48,0.00,,CLR,0.00,VWS V14.01,2013-05-30 08:16:00,
2013-05-30 04:21:00,65.5,45.3,29.62,SE,142,0.0,0.0,48,0.00,,CLR,0.00,VWS V14.01,2013-05-30 08:21:00,
2013-05-30 04:26:00,65.5,45.3,29.62,SE,142,0.0,0.0,48,0.00,,CLR,0.00,VWS V14.01,2013-05-30 08:26:00,
2013-05-30 04:31:00,65.3,45.7,29.62,SE,142,0.0,0.0,49,0.00,,CLR,0.00,VWS V14.01,2013-05-30 08:31:00,
2013-05-30 04:36:00,65.3,45.7,29.62,SE,142,0.0,0.0,49,0.00,,CLR,0.00,VWS V14.01,2013-05-30 08:36:00,
2013-05-30 04:41:00,65.3,45.7,29.62,SE,142,0.0,0.0,49,0.00,,CLR,0.00,VWS V14.01,2013-05-30 08:41:00,
2013-05-30 04:46:00,65.3,46.2,29.62,SE,142,0.0,0.0,50,0.00,,CLR,0.00,VWS V14.01,2013-05-30 08:46:00,
2013-05-30 04:51:00,65.5,46.4,29.62,SE,142,0.0,0.0,50,0.00,,CLR,0.00,VWS V14.01,2013-05-30 08:51:00,
2013-05-30 04:56:00,65.5,46.4,29.62,SE,142,0.0,0.0,50,0.00,,CLR,0.00,VWS V14.01,2013-05-30 08:56:00,
2013-05-30 05:01:00,65.5,46.4,29.62,SE,142,0.0,0.0,50,0.00,,CLR,0.00,VWS V14.01,2013-05-30 09:01:00,
2013-05-30 05:06:00,65.5,46.9,29.62,SE,142,0.0,0.0,51,0.00,,CLR,0.00,VWS V14.01,2013-05-30 09:06:00,
2013-05-30 05:11:00,65.5,46.9,29.62,SE,142,0.0,0.0,51,0.00,,CLR,0.00,VWS V14.01,2013-05-30 09:11:00,
2013-05-30 05:16:00,65.5,46.9,29.62,SE,142,0.0,0.0,51,0.00,,CLR,0.00,VWS V14.01,2013-05-30 09:16:00,
2013-05-30 05:21:00,65.5,46.9,29.62,SE,142,0.0,0.0,51,0.00,,CLR,0.00,VWS V14.01,2013-05-30 09:21:00,
2013-05-30 05:26:00,65.5,47.4,29.62,SE,142,0.0,0.0,52,0.00,,CLR,0.00,VWS V14.01,2013-05-30 09:26:00,
2013-05-30 05:31:00,65.5,47.4,29.62,SE,142,0.0,0.0,52,0.00,,CLR,0.00,VWS V14.01,2013-05-30 09:31:00,
2013-05-30 05:37:00,65.5,47.4,29.62,SE,142,0.0,0.0,52,0.00,,CLR,0.00,VWS V14.01,2013-05-30 09:37:00,
2013-05-30 05:42:00,65.5,47.4,29.65,SE,142,0.0,0.0,52,0.00,,CLR,0.00,VWS V14.01,2013-05-30 09:42:00,
2013-05-30 05:47:00,65.5,47.4,29.65,SE,142,0.0,0.0,52,0.00,,CLR,0.00,VWS V14.01,2013-05-30 09:47:00,
2013-05-30 05:52:00,65.7,47.6,29.65,SE,142,0.0,0.0,52,0.00,,CLR,0.00,VWS V14.01,2013-05-30 09:52:00,
2013-05-30 05:57:00,65.7,47.6,29.65,SE,142,0.0,0.0,52,0.00,,CLR,0.00,VWS V14.01,2013-05-30 09:57:00,
2013-05-30 06:02:00,65.7,47.6,29.65,SE,142,0.0,0.0,52,0.00,,CLR,0.00,VWS V14.01,2013-05-30 10:02:00,
2013-05-30 06:07:00,65.7,48.1,29.65,SE,142,0.0,0.0,53,0.00,,CLR,0.00,VWS V14.01,2013-05-30 10:07:00,
2013-05-30 06:12:00,65.7,48.1,29.65,SE,142,0.0,0.0,53,0.00,,CLR,0.00,VWS V14.01,2013-05-30 10:12:00,
2013-05-30 06:17:00,65.7,48.6,29.65,SE,142,0.0,0.0,54,0.00,,CLR,0.00,VWS V14.01,2013-05-30 10:17:00,
2013-05-30 06:22:00,65.7,48.6,29.65,SE,142,0.0,0.0,54,0.00,,CLR,0.00,VWS V14.01,2013-05-30 10:22:00,
2013-05-30 06:27:00,65.7,48.6,29.65,SE,142,0.0,0.0,54,0.00,,CLR,0.00,VWS V14.01,2013-05-30 10:27:00,
2013-05-30 06:32:00,65.8,49.2,29.65,SE,142,0.0,0.0,55,0.00,,CLR,0.00,VWS V14.01,2013-05-30 10:32:00,
2013-05-30 06:37:00,65.8,49.2,29.65,SE,142,0.0,0.0,55,0.00,,CLR,0.00,VWS V14.01,2013-05-30 10:37:00,
2013-05-30 06:42:00,65.8,49.2,29.65,SE,142,0.0,0.0,55,0.00,,CLR,0.00,VWS V14.01,2013-05-30 10:42:00,
2013-05-30 06:47:00,66.0,49.4,29.65,SE,142,0.0,0.0,55,0.00,,CLR,0.00,VWS V14.01,2013-05-30 10:47:00,
2013-05-30 06:52:00,66.0,49.9,29.65,SE,142,0.0,0.0,56,0.00,,CLR,0.00,VWS V14.01,2013-05-30 10:52:00,
2013-05-30 06:57:00,66.2,49.6,29.65,SE,142,0.0,0.0,55,0.00,,CLR,0.00,VWS V14.01,2013-05-30 10:57:00,
2013-05-30 07:02:00,66.2,50.1,29.65,SE,142,0.0,0.0,56,0.00,,CLR,0.00,VWS V14.01,2013-05-30 11:02:00,
2013-05-30 07:07:00,66.4,50.2,29.65,SE,142,0.0,0.0,56,0.00,,CLR,0.00,VWS V14.01,2013-05-30 11:07:00,
2013-05-30 07:12:00,66.7,50.6,29.65,SE,142,0.0,0.0,56,0.00,,CLR,0.00,VWS V14.01,2013-05-30 11:12:00,
2013-05-30 07:17:00,66.9,51.2,29.65,SE,142,0.0,0.0,57,0.00,,CLR,0.00,VWS V14.01,2013-05-30 11:17:00,
2013-05-30 07:22:00,67.1,51.4,29.65,SE,142,0.0,0.0,57,0.00,,CLR,0.00,VWS V14.01,2013-05-30 11:22:00,
2013-05-30 07:27:00,67.5,51.7,29.68,SE,142,0.0,0.0,57,0.00,,CLR,0.00,VWS V14.01,2013-05-30 11:27:00,
2013-05-30 07:32:00,67.8,52.5,29.68,SE,142,0.0,0.0,58,0.00,,CLR,0.00,VWS V14.01,2013-05-30 11:32:00,
2013-05-30 07:37:00,68.2,52.9,29.68,SE,142,0.0,0.0,58,0.00,,CLR,0.00,VWS V14.01,2013-05-30 11:37:00,
2013-05-30 07:42:00,68.7,53.8,29.68,SE,142,0.0,0.0,59,0.00,,CLR,0.00,VWS V14.01,2013-05-30 11:42:00,
2013-05-30 07:47:00,69.6,54.2,29.68,East,94,0.0,2.2,58,0.00,,CLR,0.00,VWS V14.01,2013-05-30 11:47:00,
2013-05-30 07:52:00,70.7,53.3,29.68,East,94,0.0,0.0,54,0.00,,CLR,0.00,VWS V14.01,2013-05-30 11:52:00,
2013-05-30 07:57:00,71.6,51.5,29.68,East,98,0.0,0.0,49,0.00,,CLR,0.00,VWS V14.01,2013-05-30 11:57:00,
2013-05-30 08:02:00,72.3,50.4,29.68,SE,135,0.0,0.0,46,0.00,,CLR,0.00,VWS V14.01,2013-05-30 12:02:00,
2013-05-30 08:07:00,72.7,48.9,29.68,SE,143,0.0,0.0,43,0.00,,CLR,0.00,VWS V14.01,2013-05-30 12:07:00,
2013-05-30 08:12:00,73.2,47.5,29.68,SE,143,0.0,0.0,40,0.00,,CLR,0.00,VWS V14.01,2013-05-30 12:12:00,
2013-05-30 08:17:00,73.8,43.7,29.68,ESE,103,0.0,0.0,34,0.00,,CLR,0.00,VWS V14.01,2013-05-30 12:17:00,
2013-05-30 08:22:00,74.5,41.9,29.68,ENE,77,0.0,0.0,31,0.00,,CLR,0.00,VWS V14.01,2013-05-30 12:22:00,
2013-05-30 08:27:00,75.0,38.8,29.68,ESE,109,2.2,2.7,27,0.00,,CLR,0.00,VWS V14.01,2013-05-30 12:27:00,
2013-05-30 08:32:00,75.6,35.2,29.68,NW,309,0.0,0.0,23,0.00,,CLR,0.00,VWS V14.01,2013-05-30 12:32:00,
2013-05-30 08:37:00,76.3,34.7,29.68,SE,135,0.0,0.0,22,0.00,,CLR,0.00,VWS V14.01,2013-05-30 12:37:00,
2013-05-30 08:42:00,76.8,34.0,29.68,NNW,345,0.0,0.0,21,0.00,,CLR,0.00,VWS V14.01,2013-05-30 12:42:00,
2013-05-30 08:47:00,77.2,34.3,29.68,North,10,0.0,0.0,21,0.00,,CLR,0.00,VWS V14.01,2013-05-30 12:47:00,
2013-05-30 08:52:00,77.7,33.5,29.68,NE,42,0.0,0.0,20,0.00,,CLR,0.00,VWS V14.01,2013-05-30 12:52:00,
2013-05-30 08:57:00,78.1,33.8,29.68,East,101,0.0,0.0,20,0.00,,CLR,0.00,VWS V14.01,2013-05-30 12:57:00,
2013-05-30 09:02:00,78.6,31.6,29.68,NE,41,2.2,3.6,18,0.00,,CLR,0.00,VWS V14.01,2013-05-30 13:02:00,
2013-05-30 09:07:00,79.2,30.6,29.68,ESE,123,0.0,0.0,17,0.00,,CLR,0.00,VWS V14.01,2013-05-30 13:07:00,
2013-05-30 09:12:00,79.3,30.8,29.68,ESE,106,0.0,0.0,17,0.00,,CLR,0.00,VWS V14.01,2013-05-30 13:12:00,
2013-05-30 09:17:00,80.1,28.3,29.68,ESE,111,0.0,0.0,15,0.00,,CLR,0.00,VWS V14.01,2013-05-30 13:17:00,
2013-05-30 09:22:00,80.6,27.0,29.68,NNW,333,3.1,7.6,14,0.00,,CLR,0.00,VWS V14.01,2013-05-30 13:22:00,
2013-05-30 09:27:00,81.0,27.3,29.68,NNW,329,4.0,5.4,14,0.00,,CLR,0.00,VWS V14.01,2013-05-30 13:27:00,
2013-05-30 09:32:00,81.1,27.5,29.68,NW,308,2.7,5.4,14,0.00,,CLR,0.00,VWS V14.01,2013-05-30 13:32:00,
2013-05-30 09:37:00,81.5,27.8,29.68,East,93,0.0,0.0,14,0.00,,CLR,0.00,VWS V14.01,2013-05-30 13:37:00,
2013-05-30 09:42:00,82.8,28.8,29.68,NE,45,0.0,2.2,14,0.00,,CLR,0.00,VWS V14.01,2013-05-30 13:42:00,
2013-05-30 09:47:00,83.7,29.5,29.68,SE,130,3.1,4.9,14,0.00,,CLR,0.00,VWS V14.01,2013-05-30 13:47:00,
2013-05-30 09:52:00,84.7,28.5,29.68,NW,304,0.0,0.0,13,0.00,,CLR,0.00,VWS V14.01,2013-05-30 13:52:00,
2013-05-30 09:57:00,85.6,29.2,29.68,North,0,2.7,2.7,13,0.00,,CLR,0.00,VWS V14.01,2013-05-30 13:57:00,
2013-05-30 14:23:00,91.6,31.9,29.65,SSE,147,3.1,3.1,12,0.00,,CLR,0.00,VWS V14.01,2013-05-30 18:23:00,
2013-05-30 14:28:00,92.1,32.3,29.65,ESE,117,0.0,0.0,12,0.00,,CLR,0.00,VWS V14.01,2013-05-30 18:28:00,
2013-05-30 14:33:00,92.5,32.5,29.65,SSE,147,5.8,5.8,12,0.00,,SCT085,0.00,VWS V14.01,2013-05-30 18:33:00,
2013-05-30 14:38:00,92.3,32.4,29.65,NW,310,2.7,6.3,12,0.00,,SCT085,0.00,VWS V14.01,2013-05-30 18:38:00,
2013-05-30 14:43:00,92.3,32.4,29.65,SE,124,2.7,3.1,12,0.00,,SCT085,0.00,VWS V14.01,2013-05-30 18:43:00,
2013-05-30 14:48:00,92.3,32.4,29.65,SE,129,3.1,3.1,12,0.00,,SCT085,0.00,VWS V14.01,2013-05-30 18:48:00,
2013-05-30 14:53:00,92.5,32.5,29.65,WNW,290,0.0,0.0,12,0.00,,SCT085,0.00,VWS V14.01,2013-05-30 18:53:00,
2013-05-30 14:58:00,92.3,32.4,29.65,SSE,165,4.5,4.5,12,0.00,,SCT085,0.00,VWS V14.01,2013-05-30 18:58:00,
2013-05-30 15:03:00,91.8,32.0,29.65,SSE,151,0.0,7.2,12,0.00,,CLR,0.00,VWS V14.01,2013-05-30 19:03:00,
2013-05-30 15:08:00,91.4,31.7,29.65,NE,46,2.2,4.0,12,0.00,,CLR,0.00,VWS V14.01,2013-05-30 19:08:00,
2013-05-30 15:13:00,91.0,31.4,29.65,SW,230,3.6,3.6,12,0.00,,CLR,0.00,VWS V14.01,2013-05-30 19:13:00,
2013-05-30 15:18:00,91.2,31.6,29.65,North,353,2.2,3.6,12,0.00,,CLR,0.00,VWS V14.01,2013-05-30 19:18:00,
2013-05-30 15:23:00,91.4,31.7,29.62,SE,141,0.0,0.0,12,0.00,,CLR,0.00,VWS V14.01,2013-05-30 19:23:00,
2013-05-30 15:28:00,91.4,31.7,29.62,SSE,155,5.8,5.8,12,0.00,,CLR,0.00,VWS V14.01,2013-05-30 19:28:00,
2013-05-30 15:33:00,91.0,31.4,29.62,SSE,154,5.8,5.8,12,0.00,,CLR,0.00,VWS V14.01,2013-05-30 19:33:00,
2013-05-30 15:38:00,90.9,31.3,29.62,SE,140,0.0,0.0,12,0.00,,CLR,0.00,VWS V14.01,2013-05-30 19:38:00,
2013-05-30 15:43:00,90.7,31.2,29.62,WNW,299,0.0,0.0,12,0.00,,CLR,0.00,VWS V14.01,2013-05-30 19:43:00,
2013-05-30 15:48:00,90.5,31.0,29.62,ESE,110,3.1,3.1,12,0.00,,CLR,0.00,VWS V14.01,2013-05-30 19:48:00,
2013-05-30 15:53:00,90.3,30.9,29.62,ESE,116,0.0,0.0,12,0.00,,CLR,0.00,VWS V14.01,2013-05-30 19:53:00,
2013-05-30 15:58:00,90.5,31.0,29.62,East,97,2.7,2.7,12,0.00,,CLR,0.00,VWS V14.01,2013-05-30 19:58:00,
2013-05-30 16:03:00,90.3,30.9,29.62,ESE,123,3.6,8.1,12,0.00,,FEW070,0.00,VWS V14.01,2013-05-30 20:03:00,
2013-05-30 16:08:00,90.1,30.7,29.62,ENE,71,0.0,2.2,12,0.00,,FEW070,0.00,VWS V14.01,2013-05-30 20:08:00,
2013-05-30 16:13:00,90.1,30.7,29.62,SSE,147,3.1,3.1,12,0.00,,FEW070,0.00,VWS V14.01,2013-05-30 20:13:00,
2013-05-30 16:18:00,90.3,30.9,29.62,SE,139,2.2,5.4,12,0.00,,FEW070,0.00,VWS V14.01,2013-05-30 20:18:00,
2013-05-30 16:23:00,90.3,30.9,29.62,SE,138,4.9,5.4,12,0.00,,FEW070,0.00,VWS V14.01,2013-05-30 20:23:00,
2013-05-30 16:28:00,90.1,30.7,29.62,North,357,0.0,0.0,12,0.00,,FEW070,0.00,VWS V14.01,2013-05-30 20:28:00,
2013-05-30 16:33:00,90.3,30.9,29.62,SE,132,3.1,3.1,12,0.00,,FEW070,0.00,VWS V14.01,2013-05-30 20:33:00,
2013-05-30 16:38:00,90.5,31.0,29.62,SE,145,3.1,8.1,12,0.00,,FEW070,0.00,VWS V14.01,2013-05-30 20:38:00,
2013-05-30 16:43:00,90.3,30.9,29.62,ESE,118,3.6,4.0,12,0.00,,FEW070,0.00,VWS V14.01,2013-05-30 20:43:00,
2013-05-30 16:48:00,90.1,30.7,29.62,SSE,152,3.1,5.4,12,0.00,,FEW070,0.00,VWS V14.01,2013-05-30 20:48:00,
2013-05-30 16:53:00,89.8,30.5,29.62,SE,131,2.7,5.8,12,0.00,,FEW070,0.00,VWS V14.01,2013-05-30 20:53:00,
2013-05-30 16:58:00,89.6,30.3,29.62,East,91,2.7,4.0,12,0.00,,FEW070,0.00,VWS V14.01,2013-05-30 20:58:00,
2013-05-30 17:03:00,89.6,30.3,29.62,ENE,63,0.0,0.0,12,0.00,,FEW070,0.00,VWS V14.01,2013-05-30 21:03:00,
2013-05-30 17:08:00,89.8,30.5,29.62,ESE,113,2.2,2.2,12,0.00,,FEW070,0.00,VWS V14.01,2013-05-30 21:08:00,
2013-05-30 17:13:00,90.0,30.6,29.62,SSE,157,2.7,2.7,12,0.00,,FEW070,0.00,VWS V14.01,2013-05-30 21:13:00,
2013-05-30 17:18:00,89.8,30.5,29.62,SSE,149,5.8,5.8,12,0.00,,FEW070,0.00,VWS V14.01,2013-05-30 21:18:00,
2013-05-30 17:23:00,89.4,32.2,29.62,SSE,163,3.6,5.4,13,0.00,,FEW070,0.00,VWS V14.01,2013-05-30 21:23:00,
2013-05-30 17:28:00,89.4,32.2,29.62,SE,134,5.4,5.4,13,0.00,,FEW070,0.00,VWS V14.01,2013-05-30 21:28:00,
2013-05-30 17:33:00,89.4,32.2,29.62,ENE,76,0.0,0.0,13,0.00,,FEW070,0.00,VWS V14.01,2013-05-30 21:33:00,
2013-05-30 17:38:00,89.6,30.3,29.62,WNW,295,3.1,4.9,12,0.00,,FEW070,0.00,VWS V14.01,2013-05-30 21:38:00,
2013-05-30 17:43:00,89.6,30.3,29.62,NW,311,0.0,0.0,12,0.00,,FEW070,0.00,VWS V14.01,2013-05-30 21:43:00,
2013-05-30 17:48:00,89.6,30.3,29.62,ESE,105,2.7,4.0,12,0.00,,FEW070,0.00,VWS V14.01,2013-05-30 21:48:00,
2013-05-30 17:53:00,89.6,30.3,29.62,ESE,123,2.2,2.2,12,0.00,,FEW070,0.00,VWS V14.01,2013-05-30 21:53:00,
2013-05-30 17:58:00,89.6,30.3,29.62,SE,127,0.0,0.0,12,0.00,,FEW070,0.00,VWS V14.01,2013-05-30 21:58:00,
2013-05-30 18:03:00,89.4,32.2,29.62,SE,140,2.7,3.6,13,0.00,,CLR,0.00,VWS V14.01,2013-05-30 22:03:00,
2013-05-30 18:08:00,89.2,25.6,29.62,ESE,115,0.0,0.0,10,0.00,,CLR,0.00,VWS V14.01,2013-05-30 22:08:00,
2013-05-30 18:13:00,89.1,25.5,29.62,SE,127,0.0,0.0,10,0.00,,CLR,0.00,VWS V14.01,2013-05-30 22:13:00,
2013-05-30 18:18:00,88.9,25.3,29.62,South,188,0.0,2.7,10,0.00,,CLR,0.00,VWS V14.01,2013-05-30 22:18:00,
2013-05-30 18:23:00,88.5,25.1,29.59,SSE,148,0.0,2.2,10,0.00,,CLR,0.00,VWS V14.01,2013-05-30 22:23:00,
2013-05-30 18:28:00,88.2,24.8,29.59,SSE,157,2.2,4.0,10,0.00,,CLR,0.00,VWS V14.01,2013-05-30 22:28:00,
2013-05-30 18:33:00,88.0,24.7,29.59,SE,131,0.0,0.0,10,0.00,,CLR,0.00,VWS V14.01,2013-05-30 22:33:00,
2013-05-30 18:38:00,88.0,24.7,29.62,SE,139,0.0,4.0,10,0.00,,CLR,0.00,VWS V14.01,2013-05-30 22:38:00,
2013-05-30 18:43:00,87.8,24.5,29.62,NW,317,0.0,0.0,10,0.00,,CLR,0.00,VWS V14.01,2013-05-30 22:43:00,
2013-05-30 18:48:00,87.6,26.7,29.62,SSE,154,0.0,0.0,11,0.00,,CLR,0.00,VWS V14.01,2013-05-30 22:48:00,
2013-05-30 18:53:00,87.3,26.4,29.62,SE,143,2.7,3.1,11,0.00,,CLR,0.00,VWS V14.01,2013-05-30 22:53:00,
2013-05-30 18:58:00,86.9,26.1,29.62,SE,137,0.0,0.0,11,0.00,,CLR,0.00,VWS V14.01,2013-05-30 22:58:00,
2013-05-30 19:03:00,86.4,25.7,29.62,SSE,149,0.0,0.0,11,0.00,,CLR,0.00,VWS V14.01,2013-05-30 23:03:00,
2013-05-30 19:08:00,85.8,25.3,29.62,SSE,151,0.0,0.0,11,0.00,,CLR,0.00,VWS V14.01,2013-05-30 23:08:00,
2013-05-30 19:13:00,84.9,24.6,29.62,SSE,151,0.0,0.0,11,0.00,,CLR,0.00,VWS V14.01,2013-05-30 23:13:00,
2013-05-30 19:18:00,84.4,24.2,29.62,SSE,151,0.0,0.0,11,0.00,,CLR,0.00,VWS V14.01,2013-05-30 23:18:00,
2013-05-30 19:23:00,83.7,23.6,29.62,SSE,151,0.0,0.0,11,0.00,,CLR,0.00,VWS V14.01,2013-05-30 23:23:00,
2013-05-30 19:28:00,82.8,23.0,29.62,SSE,151,0.0,0.0,11,0.00,,CLR,0.00,VWS V14.01,2013-05-30 23:28:00,
2013-05-30 19:33:00,82.2,24.6,29.62,SSE,151,0.0,0.0,12,0.00,,CLR,0.00,VWS V14.01,2013-05-30 23:33:00,
2013-05-30 19:38:00,81.7,27.9,29.62,SSE,151,0.0,0.0,14,0.00,,CLR,0.00,VWS V14.01,2013-05-30 23:38:00,
2013-05-30 19:43:00,81.1,27.5,29.62,SSE,151,0.0,0.0,14,0.00,,CLR,0.00,VWS V14.01,2013-05-30 23:43:00,
2013-05-30 19:48:00,80.6,27.0,29.62,SSE,151,0.0,0.0,14,0.00,,CLR,0.00,VWS V14.01,2013-05-30 23:48:00,
2013-05-30 19:53:00,80.1,28.3,29.62,SSE,151,0.0,0.0,15,0.00,,CLR,0.00,VWS V14.01,2013-05-30 23:53:00,
2013-05-30 19:58:00,79.5,27.9,29.62,SSE,151,0.0,0.0,15,0.00,,CLR,0.00,VWS V14.01,2013-05-30 23:58:00,
2013-05-30 20:03:00,79.0,27.4,29.62,SSE,151,0.0,0.0,15,0.00,,CLR,0.00,VWS V14.01,2013-05-31 00:03:00,
2013-05-30 20:08:00,78.6,27.1,29.62,SSE,151,0.0,0.0,15,0.00,,CLR,0.00,VWS V14.01,2013-05-31 00:08:00,
2013-05-30 20:13:00,78.3,26.9,29.62,SSE,151,0.0,0.0,15,0.00,,CLR,0.00,VWS V14.01,2013-05-31 00:13:00,
2013-05-30 20:18:00,77.9,26.6,29.62,SSE,151,0.0,0.0,15,0.00,,CLR,0.00,VWS V14.01,2013-05-31 00:18:00,
2013-05-30 20:23:00,77.5,30.7,29.62,SSE,151,0.0,0.0,18,0.00,,CLR,0.00,VWS V14.01,2013-05-31 00:23:00,
2013-05-30 20:28:00,77.0,30.3,29.62,SSE,151,0.0,0.0,18,0.00,,CLR,0.00,VWS V14.01,2013-05-31 00:28:00,
2013-05-30 20:33:00,76.6,30.0,29.62,SSE,151,0.0,0.0,18,0.00,,CLR,0.00,VWS V14.01,2013-05-31 00:33:00,
2013-05-30 20:38:00,76.3,29.7,29.62,SSE,151,0.0,0.0,18,0.00,,CLR,0.00,VWS V14.01,2013-05-31 00:38:00,
2013-05-30 20:43:00,76.1,29.6,29.62,SSE,152,2.7,2.7,18,0.00,,CLR,0.00,VWS V14.01,2013-05-31 00:43:00,
2013-05-30 20:48:00,75.6,31.7,29.62,SSE,152,2.2,2.2,20,0.00,,CLR,0.00,VWS V14.01,2013-05-31 00:48:00,
2013-05-30 20:53:00,75.2,31.4,29.62,SSE,152,0.0,2.7,20,0.00,,CLR,0.00,VWS V14.01,2013-05-31 00:53:00,
2013-05-30 20:58:00,74.8,32.3,29.62,SSE,152,0.0,2.2,21,0.00,,CLR,0.00,VWS V14.01,2013-05-31 00:58:00,
2013-05-30 21:03:00,74.5,32.0,29.62,SSE,152,0.0,0.0,21,0.00,,CLR,0.00,VWS V14.01,2013-05-31 01:03:00,
2013-05-30 21:08:00,74.1,31.7,29.62,SSE,152,0.0,0.0,21,0.00,,CLR,0.00,VWS V14.01,2013-05-31 01:08:00,
2013-05-30 21:13:00,73.9,32.7,29.62,SSE,152,0.0,0.0,22,0.00,,CLR,0.00,VWS V14.01,2013-05-31 01:13:00,
2013-05-30 21:18:00,73.6,32.4,29.62,SSE,152,0.0,0.0,22,0.00,,CLR,0.00,VWS V14.01,2013-05-31 01:18:00,
2013-05-30 21:23:00,73.4,32.3,29.62,SSE,152,0.0,0.0,22,0.00,,CLR,0.00,VWS V14.01,2013-05-31 01:23:00,
2013-05-30 21:28:00,73.2,32.1,29.62,SSE,152,0.0,0.0,22,0.00,,CLR,0.00,VWS V14.01,2013-05-31 01:28:00,
2013-05-30 21:33:00,72.9,32.9,29.62,SSE,152,0.0,0.0,23,0.00,,CLR,0.00,VWS V14.01,2013-05-31 01:33:00,
2013-05-30 21:38:00,72.7,32.8,29.62,SSE,152,0.0,0.0,23,0.00,,CLR,0.00,VWS V14.01,2013-05-31 01:38:00,
2013-05-30 21:43:00,72.7,32.8,29.62,SSE,152,0.0,0.0,23,0.00,,CLR,0.00,VWS V14.01,2013-05-31 01:43:00,
2013-05-30 21:48:00,72.5,32.6,29.62,SSE,152,0.0,0.0,23,0.00,,CLR,0.00,VWS V14.01,2013-05-31 01:48:00,
2013-05-30 21:53:00,72.3,32.5,29.62,SSE,152,0.0,0.0,23,0.00,,CLR,0.00,VWS V14.01,2013-05-31 01:53:00,
2013-05-30 21:58:00,72.1,32.3,29.62,SSE,152,0.0,0.0,23,0.00,,CLR,0.00,VWS V14.01,2013-05-31 01:58:00,
2013-05-30 22:03:00,72.0,33.2,29.62,SSE,152,0.0,0.0,24,0.00,,CLR,0.00,VWS V14.01,2013-05-31 02:03:00,
2013-05-30 22:08:00,71.8,32.0,29.65,SSE,152,0.0,0.0,23,0.00,,CLR,0.00,VWS V14.01,2013-05-31 02:08:00,
2013-05-30 22:13:00,71.8,32.0,29.65,SSE,152,0.0,0.0,23,0.00,,CLR,0.00,VWS V14.01,2013-05-31 02:13:00,
2013-05-30 22:18:00,71.6,31.9,29.65,SSE,152,0.0,0.0,23,0.00,,CLR,0.00,VWS V14.01,2013-05-31 02:18:00,
2013-05-30 22:23:00,71.4,32.8,29.65,SSE,152,0.0,0.0,24,0.00,,CLR,0.00,VWS V14.01,2013-05-31 02:23:00,
2013-05-30 22:28:00,71.2,32.6,29.65,SSE,152,0.0,0.0,24,0.00,,CLR,0.00,VWS V14.01,2013-05-31 02:28:00,
2013-05-30 22:33:00,71.1,32.5,29.65,SSE,152,0.0,0.0,24,0.00,,CLR,0.00,VWS V14.01,2013-05-31 02:33:00,
2013-05-30 22:38:00,70.9,32.3,29.65,SSE,152,0.0,0.0,24,0.00,,CLR,0.00,VWS V14.01,2013-05-31 02:38:00,
2013-05-30 22:43:00,70.9,33.3,29.65,SSE,152,0.0,0.0,25,0.00,,CLR,0.00,VWS V14.01,2013-05-31 02:43:00,
2013-05-30 22:48:00,70.9,33.3,29.65,SSE,152,0.0,0.0,25,0.00,,CLR,0.00,VWS V14.01,2013-05-31 02:48:00,
2013-05-30 22:53:00,70.7,34.2,29.65,SSE,152,0.0,0.0,26,0.00,,CLR,0.00,VWS V14.01,2013-05-31 02:53:00,
2013-05-30 22:58:00,70.7,34.2,29.65,SSE,152,0.0,0.0,26,0.00,,CLR,0.00,VWS V14.01,2013-05-31 02:58:00,
2013-05-30 23:03:00,70.5,34.0,29.65,SSE,152,0.0,0.0,26,0.00,,CLR,0.00,VWS V14.01,2013-05-31 03:03:00,
2013-05-30 23:08:00,70.5,35.0,29.65,SSE,152,0.0,0.0,27,0.00,,CLR,0.00,VWS V14.01,2013-05-31 03:08:00,
2013-05-30 23:13:00,70.3,34.8,29.65,SSE,152,0.0,0.0,27,0.00,,CLR,0.00,VWS V14.01,2013-05-31 03:13:00,
2013-05-30 23:18:00,70.3,35.7,29.65,SSE,152,0.0,0.0,28,0.00,,CLR,0.00,VWS V14.01,2013-05-31 03:18:00,
2013-05-30 23:23:00,70.3,36.6,29.65,SSE,152,0.0,0.0,29,0.00,,CLR,0.00,VWS V14.01,2013-05-31 03:23:00,
2013-05-30 23:28:00,70.2,36.5,29.65,SSE,152,0.0,0.0,29,0.00,,CLR,0.00,VWS V14.01,2013-05-31 03:28:00,
2013-05-30 23:33:00,70.2,36.5,29.65,SSE,152,0.0,0.0,29,0.00,,CLR,0.00,VWS V14.01,2013-05-31 03:33:00,
2013-05-30 23:38:00,70.0,36.3,29.65,SSE,152,0.0,0.0,29,0.00,,CLR,0.00,VWS V14.01,2013-05-31 03:38:00,
2013-05-30 23:43:00,70.0,36.3,29.65,SSE,152,0.0,0.0,29,0.00,,CLR,0.00,VWS V14.01,2013-05-31 03:43:00,
2013-05-30 23:48:00,69.8,36.1,29.65,SSE,152,0.0,0.0,29,0.00,,CLR,0.00,VWS V14.01,2013-05-31 03:48:00,
2013-05-30 23:53:00,70.0,37.2,29.65,SSE,152,0.0,0.0,30,0.00,,CLR,0.00,VWS V14.01,2013-05-31 03:53:00,
2013-05-30 23:58:00,69.8,37.8,29.65,SSE,152,0.0,0.0,31,0.00,,CLR,0.00,VWS V14.01,2013-05-31 03:58:00,